Time;durP1;ratioP1;P1;durP2;ratioP2;P2;SDS_P1;SDS_P2;PMS_P1;PMS_P2;Temp;Humidity;BMP_temperature;BMP_pressure;BME280_temperature;BME280_humidity;BME280_pressure;Samples;Min_cycle;Max_cycle;Signal;HPM_P1;HPM_P2
2022/11/18 00:01:25;;;;;;;2.20;2.00;;;;;;;20.07;56.23;95546.38;4978063;28;20273;-85
2022/11/18 00:03:52;;;;;;;3.00;1.90;;;;;;;19.39;56.17;95433.97;4977172;28;20199;-85
2022/11/18 00:06:20;;;;;;;2.60;1.60;;;;;;;13.42;55.82;94387.56;4959421;28;20238;-85
2022/11/18 00:08:47;;;;;;;2.47;1.80;;;;;;;16.19;55.89;94853.56;4961345;28;20231;-85
2022/11/18 00:14:19;;;;;;;2.10;1.90;;;;;;;17.76;56.01;95177.78;4968841;28;20192;-85
2022/11/18 00:16:49;;;;;;;2.13;1.60;;;;;;;17.69;56.06;95097.31;4979976;28;20763;-85
2022/11/18 00:19:16;;;;;;;2.43;1.90;;;;;;;21.39;56.26;95725.47;4992764;28;20199;-85
2022/11/18 00:21:45;;;;;;;4.60;2.10;;;;;;;19.75;55.92;95446.00;4973420;28;20243;-85
2022/11/18 00:24:11;;;;;;;2.10;1.90;;;;;;;17.66;56.04;95111.66;4992388;28;20223;-85
2022/11/18 00:26:46;;;;;;;2.83;1.93;;;;;;;11.20;56.35;94033.25;4972359;28;20224;-85
2022/11/18 00:29:17;;;;;;;3.30;2.00;;;;;;;10.51;55.87;93982.84;4974731;28;20216;-85
2022/11/18 00:31:47;;;;;;;1.77;1.60;;;;;;;15.91;56.04;94828.00;4974492;28;20298;-85
2022/11/18 00:34:16;;;;;;;1.70;1.60;;;;;;;16.76;55.98;95001.88;4992346;28;20624;-85
2022/11/18 00:36:42;;;;;;;3.93;1.40;;;;;;;18.27;56.16;95170.44;4962881;28;20639;-85
2022/11/18 00:39:12;;;;;;;2.53;1.80;;;;;;;16.93;56.10;94985.13;4971054;28;20204;-85
2022/11/18 00:44:30;;;;;;;2.10;1.73;;;;;;;21.36;56.33;95705.03;4976729;28;20219;-85
2022/11/18 00:46:59;;;;;;;2.93;1.93;;;;;;;21.35;56.19;95692.25;4977587;28;20302;-85
2022/11/18 00:49:26;;;;;;;1.67;1.57;;;;;;;19.59;55.97;95391.59;4972491;28;20493;-85
2022/11/18 00:51:53;;;;;;;1.80;1.70;;;;;;;15.16;56.13;94671.25;4995052;28;20294;-85
2022/11/18 00:54:26;;;;;;;1.87;1.70;;;;;;;11.57;56.13;94024.50;4972971;28;20197;-84
2022/11/18 00:56:55;;;;;;;1.93;1.73;;;;;;;12.43;55.70;94321.66;4988376;28;20603;-85
2022/11/18 00:59:22;;;;;;;2.00;1.80;;;;;;;21.36;56.35;95682.03;4980713;28;20658;-84
2022/11/18 01:01:49;;;;;;;3.23;2.00;;;;;;;16.63;55.85;94922.34;4972186;28;20205;-85
2022/11/18 01:04:16;;;;;;;2.43;1.67;;;;;;;16.55;56.08;94944.25;4975525;28;20231;-85
2022/11/18 01:06:43;;;;;;;2.00;1.80;;;;;;;20.96;56.33;95618.97;4976331;28;20231;-85
2022/11/18 01:09:09;;;;;;;2.07;1.70;;;;;;;12.58;56.08;94242.91;4981051;28;20827;-85
2022/11/18 01:14:49;;;;;;;1.93;1.70;;;;;;;20.55;56.63;95544.00;4941379;29;20201;-85
2022/11/18 01:17:16;;;;;;;2.40;1.93;;;;;;;18.85;56.41;95254.66;4936284;29;20221;-85
2022/11/18 01:19:43;;;;;;;2.30;1.77;;;;;;;19.39;56.25;95377.94;4938696;28;20226;-85
2022/11/18 01:22:10;;;;;;;2.53;1.73;;;;;;;21.36;56.30;95678.63;4974622;28;20200;-85
2022/11/18 01:24:36;;;;;;;2.67;1.90;;;;;;;21.36;56.34;95676.94;4973633;28;20227;-85
2022/11/18 01:27:03;;;;;;;2.00;1.80;;;;;;;21.36;56.34;95679.47;4991726;28;20643;-84
2022/11/18 01:29:30;;;;;;;1.83;1.70;;;;;;;21.36;56.31;95670.94;4967663;28;20199;-85
2022/11/18 01:32:12;;;;;;;2.30;1.83;;;;;;;20.55;56.32;95530.38;4977557;28;20203;-85
2022/11/18 01:34:59;;;;;;;1.90;1.70;;;;;;;20.08;56.35;95450.34;4972736;28;20204;-84
2022/11/18 01:37:32;;;;;;;2.67;1.60;;;;;;;20.18;57.04;95472.47;4976822;28;20725;-85
2022/11/18 01:39:59;;;;;;;1.80;1.70;;;;;;;21.36;56.41;95658.16;4980297;28;20478;-85
2022/11/18 01:42:26;;;;;;;1.60;1.50;;;;;;;12.46;55.94;94160.56;4992000;28;20203;-85
2022/11/18 01:45:08;;;;;;;2.00;1.80;;;;;;;15.66;56.23;94872.50;4978424;28;20311;-85
2022/11/18 01:48:00;;;;;;;1.83;1.63;;;;;;;21.36;56.26;95653.06;4982379;28;20227;-85
2022/11/18 01:50:38;;;;;;;1.83;1.60;;;;;;;18.13;56.22;95126.34;4971600;28;20203;-85
2022/11/18 01:53:10;;;;;;;2.00;1.67;;;;;;;19.88;56.33;95461.34;4975111;28;20294;-85
2022/11/18 01:55:40;;;;;;;1.83;1.50;;;;;;;21.36;56.47;95684.59;4990923;28;20228;-85
2022/11/18 01:58:38;;;;;;;1.83;1.30;;;;;;;21.36;56.56;95683.72;4991700;28;20199;-85
2022/11/18 02:01:05;;;;;;;1.57;1.47;;;;;;;20.53;56.59;95550.81;4956538;28;20226;-85
2022/11/18 02:03:34;;;;;;;1.73;1.63;;;;;;;14.92;55.77;94662.63;4975135;28;20204;-85
2022/11/18 02:06:04;;;;;;;1.70;1.60;;;;;;;19.86;56.74;95439.22;4978589;28;20255;-85
2022/11/18 02:08:31;;;;;;;2.00;1.53;;;;;;;14.69;56.39;94561.34;4983217;28;20199;-85
2022/11/18 02:10:58;;;;;;;1.60;1.50;;;;;;;18.33;56.44;95179.81;4957559;28;20266;-85
2022/11/18 02:13:25;;;;;;;1.73;1.50;;;;;;;11.47;56.20;94023.53;4975647;28;20200;-85
2022/11/18 02:16:14;;;;;;;1.53;1.43;;;;;;;17.05;56.37;94963.19;4976886;28;20251;-85
2022/11/18 02:18:53;;;;;;;2.13;1.70;;;;;;;11.57;56.02;94037.91;4971983;28;20258;-85
2022/11/18 02:21:51;;;;;;;2.33;1.83;;;;;;;17.84;56.37;95097.38;4981230;28;20207;-85
2022/11/18 02:24:32;;;;;;;2.03;1.70;;;;;;;21.36;56.57;95699.91;4979519;28;20210;-85
2022/11/18 02:27:37;;;;;;;1.67;1.47;;;;;;;13.13;56.20;94365.34;4994014;28;20269;-85
2022/11/18 02:30:08;;;;;;;1.60;1.50;;;;;;;16.88;56.40;94934.34;4979817;28;20199;-85
2022/11/18 02:32:57;;;;;;;1.60;1.50;;;;;;;21.36;56.44;95694.81;4948918;28;20203;-85
2022/11/18 02:35:32;;;;;;;1.93;1.60;;;;;;;21.36;56.64;95696.50;4986357;28;20242;-85
2022/11/18 02:38:01;;;;;;;1.57;1.40;;;;;;;21.35;56.60;95698.19;4977784;28;20209;-85
2022/11/18 02:40:30;;;;;;;1.70;1.60;;;;;;;21.36;56.58;95699.06;4971907;28;20266;-85
2022/11/18 02:43:19;;;;;;;1.70;1.60;;;;;;;21.35;56.36;95705.84;4952981;28;20206;-85
2022/11/18 02:45:48;;;;;;;1.90;1.60;;;;;;;20.25;56.51;95520.94;4979522;28;20314;-85
2022/11/18 02:48:15;;;;;;;1.60;1.50;;;;;;;21.35;56.45;95700.75;4967003;28;20227;-85
2022/11/18 02:50:42;;;;;;;1.90;1.70;;;;;;;21.36;55.96;95706.72;4985818;28;20203;-85
2022/11/18 02:53:09;;;;;;;1.43;1.33;;;;;;;21.37;56.43;95699.06;4977612;28;20262;-87
2022/11/18 02:55:36;;;;;;;1.60;1.50;;;;;;;21.37;56.51;95699.06;4985442;28;20327;-85
2022/11/18 02:58:02;;;;;;;1.53;1.40;;;;;;;17.66;56.34;95071.91;4978411;28;20203;-85
2022/11/18 03:00:29;;;;;;;1.80;1.50;;;;;;;19.59;56.33;95395.81;4959302;28;20274;-85
2022/11/18 03:02:56;;;;;;;1.60;1.50;;;;;;;20.41;56.32;95537.16;4970424;28;20200;-85
2022/11/18 03:05:23;;;;;;;1.97;1.40;;;;;;;21.36;56.54;95704.16;4978436;28;20758;-85
2022/11/18 03:07:52;;;;;;;2.37;1.60;;;;;;;21.36;56.66;95693.94;4978452;28;20219;-84
2022/11/18 03:10:19;;;;;;;1.50;1.40;;;;;;;19.54;56.45;95389.88;4961627;28;20282;-85
2022/11/18 03:12:50;;;;;;;1.70;1.50;;;;;;;21.35;56.38;95716.06;4967236;28;20679;-85
2022/11/18 03:15:17;;;;;;;1.83;1.70;;;;;;;21.35;56.67;95695.63;4969128;28;20239;-84
2022/11/18 03:17:45;;;;;;;1.73;1.50;;;;;;;21.35;56.87;95707.59;4978601;28;20208;-85
2022/11/18 03:20:21;;;;;;;2.20;1.87;;;;;;;21.36;56.49;95691.38;4993667;28;20215;-85
2022/11/18 03:23:10;;;;;;;1.87;1.60;;;;;;;21.36;56.68;95701.59;4985961;28;20203;-85
2022/11/18 03:25:44;;;;;;;1.67;1.57;;;;;;;20.54;56.60;95557.59;4972464;28;20318;-85
2022/11/18 03:28:21;;;;;;;1.57;1.47;;;;;;;21.11;56.63;95664.94;4963122;28;20210;-85
2022/11/18 03:31:07;;;;;;;1.57;1.43;;;;;;;21.35;56.51;95721.19;4978817;28;20226;-85
2022/11/18 03:33:36;;;;;;;1.30;1.20;;;;;;;20.82;56.60;95615.53;4959539;28;20222;-85
2022/11/18 03:36:04;;;;;;;2.17;1.40;;;;;;;21.35;56.60;95722.91;4991780;28;20220;-84
2022/11/18 03:38:33;;;;;;;1.43;1.33;;;;;;;19.47;56.62;95416.16;4969723;28;20210;-85
2022/11/18 03:41:00;;;;;;;1.47;1.37;;;;;;;20.48;56.71;95559.28;4951615;28;20239;-85
2022/11/18 03:43:30;;;;;;;1.40;1.30;;;;;;;19.49;56.39;95396.66;4950689;28;20223;-85
2022/11/18 03:46:01;;;;;;;1.80;1.50;;;;;;;21.35;56.54;95721.19;4983740;28;20231;-85
2022/11/18 03:48:29;;;;;;;1.80;1.50;;;;;;;21.36;56.57;95719.50;4982167;28;20207;-85
2022/11/18 03:51:10;;;;;;;1.23;1.20;;;;;;;21.35;56.54;95726.31;4979936;28;20343;-85
2022/11/18 03:53:44;;;;;;;1.40;1.30;;;;;;;20.47;56.47;95576.31;4976356;28;20231;-85
2022/11/18 03:56:15;;;;;;;2.20;1.20;;;;;;;21.36;56.67;95732.28;4966938;28;20216;-85
2022/11/18 03:59:04;;;;;;;1.70;1.40;;;;;;;21.35;56.61;95723.75;4984148;28;20295;-85
2022/11/18 04:01:47;;;;;;;1.40;1.30;;;;;;;21.02;56.63;95674.31;4963226;28;20203;-85
2022/11/18 04:04:14;;;;;;;1.60;1.50;;;;;;;18.64;56.63;95307.97;4973297;28;20208;-85
2022/11/18 04:07:14;;;;;;;1.50;1.40;;;;;;;21.14;56.61;95705.81;5021616;22;20240;-91
2022/11/18 04:09:44;;;;;;;1.60;1.50;;;;;;;21.34;56.77;95742.50;4991693;28;20210;-91
2022/11/18 04:12:13;;;;;;;1.40;1.30;;;;;;;19.24;56.39;95397.34;4974975;28;20226;-91
2022/11/18 04:14:41;;;;;;;1.50;1.40;;;;;;;20.63;56.66;95629.06;4968124;28;20211;-91
2022/11/18 04:17:12;;;;;;;1.40;1.30;;;;;;;20.77;56.37;95647.84;4976122;28;20227;-90
2022/11/18 04:19:39;;;;;;;1.87;1.40;;;;;;;20.46;56.70;95583.94;4983942;28;20286;-91
2022/11/18 04:22:05;;;;;;;1.40;1.30;;;;;;;19.73;56.63;95491.88;4980192;28;20211;-90
2022/11/18 04:24:32;;;;;;;1.33;1.23;;;;;;;20.06;56.58;95525.97;4975752;28;20201;-91
2022/11/18 04:26:59;;;;;;;1.50;1.40;;;;;;;19.98;56.43;95513.19;4984398;28;20309;-91
2022/11/18 04:29:25;;;;;;;1.30;1.20;;;;;;;21.34;56.71;95739.94;4968475;28;20207;-91
2022/11/18 04:31:52;;;;;;;1.30;1.20;;;;;;;18.56;56.29;95289.28;4978043;28;20258;-90
2022/11/18 04:34:19;;;;;;;1.50;1.40;;;;;;;18.78;56.59;95298.72;4959669;28;20295;-91
2022/11/18 04:36:45;;;;;;;1.37;1.27;;;;;;;20.56;56.67;95613.75;4991183;28;20223;-91
2022/11/18 04:39:12;;;;;;;1.47;1.30;;;;;;;21.15;56.53;95710.09;4978846;28;20249;-90
2022/11/18 04:41:57;;;;;;;1.50;1.40;;;;;;;19.84;56.44;95497.00;4975271;28;20226;-91
2022/11/18 04:44:28;;;;;;;1.60;1.50;;;;;;;20.91;56.80;95669.16;4988339;28;20286;-91
2022/11/18 04:46:56;;;;;;;1.63;1.30;;;;;;;20.38;56.57;95581.38;4973955;28;20685;-90
2022/11/18 04:49:22;;;;;;;1.87;1.30;;;;;;;20.92;56.59;95668.28;4992377;28;20679;-91
2022/11/18 04:51:49;;;;;;;1.37;1.27;;;;;;;21.07;56.79;95693.03;4977449;28;20249;-91
2022/11/18 04:54:16;;;;;;;1.53;1.43;;;;;;;21.08;56.63;95687.09;4975682;28;20206;-91
2022/11/18 04:56:43;;;;;;;1.40;1.30;;;;;;;20.29;56.56;95567.72;4989351;28;20637;-91
2022/11/18 04:59:17;;;;;;;1.57;1.40;;;;;;;19.69;56.58;95468.94;4962869;28;20712;-91
2022/11/18 05:01:44;;;;;;;1.57;1.47;;;;;;;19.88;56.62;95470.69;4992800;28;20671;-90
2022/11/18 05:04:12;;;;;;;1.40;1.30;;;;;;;20.75;56.63;95618.91;4972522;28;20273;-91
2022/11/18 05:06:39;;;;;;;1.20;1.10;;;;;;;21.18;56.55;95692.22;4958188;28;20233;-90
2022/11/18 05:09:06;;;;;;;1.50;1.40;;;;;;;21.35;56.56;95738.25;4972934;28;20751;-91
2022/11/18 05:14:18;;;;;;;1.50;1.40;;;;;;;21.14;56.65;95685.38;4989856;28;20282;-90
2022/11/18 05:16:44;;;;;;;1.50;1.40;;;;;;;21.29;56.32;95718.63;4989904;28;20219;-91
2022/11/18 05:19:11;;;;;;;1.87;1.30;;;;;;;19.95;56.39;95485.13;4980338;28;20655;-91
2022/11/18 05:21:37;;;;;;;3.03;1.40;;;;;;;20.69;56.61;95623.97;4981779;28;20202;-90
2022/11/18 05:24:04;;;;;;;1.30;1.20;;;;;;;20.27;56.44;95539.66;4993331;28;20203;-91
2022/11/18 05:26:31;;;;;;;1.30;1.20;;;;;;;20.15;56.28;95526.03;4972156;28;20264;-91
2022/11/18 05:28:58;;;;;;;1.30;1.20;;;;;;;20.59;56.53;95601.84;4968122;28;20213;-90
2022/11/18 05:31:24;;;;;;;1.30;1.20;;;;;;;20.79;56.35;95633.38;4973456;28;20598;-91
2022/11/18 05:33:51;;;;;;;1.30;1.20;;;;;;;21.35;56.05;95723.75;4961217;28;20207;-91
2022/11/18 05:36:18;;;;;;;1.97;1.47;;;;;;;20.87;56.77;95659.75;4991186;28;20219;-91
2022/11/18 05:38:45;;;;;;;1.50;1.40;;;;;;;20.82;56.67;95637.63;4963311;28;20293;-91
2022/11/18 05:43:09;;;;;;;1.10;1.10;;;;;;;20.71;56.55;95629.94;4958659;28;20206;-90
2022/11/18 05:44:01;;;;;;;1.47;1.37;;;;;;;20.73;56.62;95630.81;4977854;28;20230;-91
2022/11/18 05:46:29;;;;;;;1.10;1.10;;;;;;;21.19;56.79;95722.03;4975278;28;20226;-92
2022/11/18 05:48:55;;;;;;;1.40;1.30;;;;;;;20.94;56.50;95668.31;4974663;28;20579;-90
2022/11/18 05:51:22;;;;;;;1.10;1.10;;;;;;;20.96;56.78;95682.78;4990462;28;20203;-91
2022/11/18 05:53:49;;;;;;;1.50;1.40;;;;;;;20.83;56.61;95647.00;4958150;28;20202;-91
2022/11/18 05:56:20;;;;;;;1.50;1.30;;;;;;;21.35;56.47;95744.19;4974209;28;20309;-92
2022/11/18 05:58:47;;;;;;;1.33;1.20;;;;;;;20.41;56.65;95581.38;4976126;28;20635;-91
2022/11/18 06:01:16;;;;;;;1.10;1.10;;;;;;;20.41;56.53;95589.03;4978815;28;20286;-92
2022/11/18 06:03:43;;;;;;;1.30;1.20;;;;;;;20.64;56.77;95641.00;4980603;28;20213;-92
2022/11/18 06:06:09;;;;;;;1.27;1.20;;;;;;;20.64;56.62;95632.47;4956037;28;20223;-91
2022/11/18 06:08:41;;;;;;;1.47;1.20;;;;;;;20.29;56.84;95583.03;4962891;28;20199;-92
2022/11/18 06:11:10;;;;;;;3.57;1.50;;;;;;;21.37;56.48;95759.50;4963576;28;20213;-92
2022/11/18 06:13:40;;;;;;;2.60;1.40;;;;;;;20.63;56.53;95630.78;4963289;28;20242;-91
2022/11/18 06:16:07;;;;;;;3.10;1.60;;;;;;;20.97;56.46;95694.75;4978351;28;20669;-91
2022/11/18 06:18:34;;;;;;;2.50;1.40;;;;;;;20.86;56.00;95675.94;4963429;28;20213;-91
2022/11/18 06:21:03;;;;;;;3.27;1.83;;;;;;;21.25;55.32;95745.03;4985472;28;20201;-92
2022/11/18 06:23:32;;;;;;;2.30;2.07;;;;;;;20.67;54.90;95651.22;4993345;28;20286;-91
2022/11/18 06:25:59;;;;;;;3.90;2.10;;;;;;;20.64;54.34;95652.91;4994493;28;20242;-90
2022/11/18 06:28:25;;;;;;;2.37;1.70;;;;;;;20.72;53.56;95675.03;4993485;28;20198;-91
2022/11/18 06:30:52;;;;;;;3.37;1.90;;;;;;;20.48;53.76;95635.81;4957980;28;20199;-91
2022/11/18 06:33:18;;;;;;;4.57;1.90;;;;;;;21.20;54.12;95750.97;4975266;28;20210;-90
2022/11/18 06:35:45;;;;;;;2.20;1.93;;;;;;;20.78;54.07;95690.38;4979957;28;20203;-90
2022/11/18 06:38:11;;;;;;;3.10;1.83;;;;;;;20.65;54.35;95673.31;4965387;28;20219;-90
2022/11/18 06:40:38;;;;;;;2.83;1.80;;;;;;;20.87;54.73;95713.38;4978178;28;20206;-92
2022/11/18 06:48:35;;;;;;;2.23;1.80;;;;;;;20.91;54.76;95727.03;4993280;28;20206;-90
2022/11/18 06:51:06;;;;;;;2.10;1.87;;;;;;;19.98;55.08;95578.63;4983623;28;20203;-90
2022/11/18 06:53:33;;;;;;;2.53;1.70;;;;;;;20.79;55.31;95720.19;4964479;28;20677;-90
2022/11/18 06:56:04;;;;;;;2.10;1.67;;;;;;;20.14;55.32;95616.13;4970519;28;20289;-90
2022/11/18 06:58:30;;;;;;;2.10;1.87;;;;;;;20.86;55.62;95733.78;4980321;28;20207;-89
2022/11/18 07:00:57;;;;;;;4.53;1.70;;;;;;;19.76;55.69;95553.06;4974208;28;20905;-90
2022/11/18 07:03:23;;;;;;;4.60;1.60;;;;;;;21.16;55.83;95777.34;4993431;28;20191;-90
2022/11/18 07:05:50;;;;;;;3.73;1.67;;;;;;;21.06;56.07;95784.16;4976684;28;20223;-90
2022/11/18 07:08:16;;;;;;;6.20;2.00;;;;;;;21.36;56.34;95839.59;4959370;28;20233;-90
2022/11/18 07:10:51;;;;;;;4.30;1.60;;;;;;;21.27;56.04;95821.69;4991833;28;20239;-89
2022/11/18 07:13:17;;;;;;;5.07;2.27;;;;;;;20.95;55.84;95773.03;4980327;28;20202;-89
2022/11/18 07:15:44;;;;;;;4.50;2.50;;;;;;;21.12;54.92;95801.19;4992884;28;20237;-89
2022/11/18 07:18:10;;;;;;;4.80;2.70;;;;;;;20.06;53.96;95627.94;4965565;28;20227;-89
2022/11/18 07:20:37;;;;;;;3.03;2.57;;;;;;;20.84;53.77;95761.03;4954641;28;20250;-89
2022/11/18 07:23:03;;;;;;;2.73;2.37;;;;;;;20.86;54.29;95767.84;4966414;28;20776;-89
2022/11/18 07:25:30;;;;;;;2.87;2.40;;;;;;;21.20;54.33;95827.63;4974946;28;20306;-89
2022/11/18 07:27:57;;;;;;;3.30;2.17;;;;;;;20.82;54.32;95776.34;4988897;28;20317;-89
2022/11/18 07:30:23;;;;;;;4.73;2.40;;;;;;;20.86;54.54;95779.75;4975740;28;20203;-89
2022/11/18 07:32:50;;;;;;;2.67;2.30;;;;;;;20.56;55.02;95736.22;4970743;28;20686;-89
2022/11/18 07:35:17;;;;;;;4.67;2.40;;;;;;;21.12;55.18;95837.81;4989379;28;20213;-89
2022/11/18 07:37:44;;;;;;;4.10;2.20;;;;;;;20.65;54.77;95764.34;4971524;28;20225;-89
2022/11/18 07:40:10;;;;;;;2.77;2.00;;;;;;;21.08;55.15;95837.78;4963264;28;20201;-89
2022/11/18 07:42:43;;;;;;;3.10;2.13;;;;;;;21.02;55.09;95830.09;4979429;28;20301;-89
2022/11/18 07:45:10;;;;;;;2.60;2.00;;;;;;;21.36;55.31;95889.00;4968839;28;20217;-89
2022/11/18 07:47:37;;;;;;;2.73;2.30;;;;;;;20.88;55.18;95809.56;4972677;28;20250;-89
2022/11/18 07:50:04;;;;;;;2.30;2.10;;;;;;;21.06;55.31;95850.56;4971521;28;20203;-89
2022/11/18 07:52:30;;;;;;;2.10;1.90;;;;;;;20.96;55.57;95835.19;4957746;28;20206;-90
2022/11/18 07:54:57;;;;;;;3.27;2.27;;;;;;;20.92;55.53;95838.50;4984816;28;20305;-89
2022/11/18 07:57:24;;;;;;;3.57;2.23;;;;;;;21.09;55.36;95868.44;4977490;28;20223;-89
2022/11/18 07:59:50;;;;;;;1.93;1.60;;;;;;;20.94;55.39;95835.13;4980245;28;20245;-90
2022/11/18 08:02:17;;;;;;;2.17;1.97;;;;;;;20.92;55.47;95835.97;4975165;28;20198;-90
2022/11/18 08:04:43;;;;;;;2.17;1.97;;;;;;;20.92;55.73;95835.97;4958946;28;20205;-89
2022/11/18 08:07:10;;;;;;;2.43;2.10;;;;;;;20.87;55.62;95830.00;4960123;28;20586;-90
2022/11/18 08:09:37;;;;;;;2.83;2.13;;;;;;;21.04;55.96;95862.44;4974147;28;20219;-90
2022/11/18 08:12:04;;;;;;;3.03;2.20;;;;;;;20.99;55.48;95856.47;4974896;28;20670;-90
2022/11/18 08:14:30;;;;;;;2.17;1.70;;;;;;;20.91;55.80;95847.88;4963318;28;20209;-90
2022/11/18 08:16:57;;;;;;;2.17;1.97;;;;;;;20.88;55.77;95847.00;4972090;28;20338;-88
2022/11/18 08:19:23;;;;;;;4.60;2.10;;;;;;;21.02;56.26;95881.19;4988760;28;20199;-89
2022/11/18 08:21:50;;;;;;;3.97;1.90;;;;;;;20.80;55.86;95843.56;4978455;28;20203;-90
2022/11/18 08:24:16;;;;;;;8.77;1.80;;;;;;;20.57;56.12;95797.47;4962516;28;20201;-90
2022/11/18 08:26:44;;;;;;;2.50;2.30;;;;;;;21.03;55.70;95882.88;4972907;28;20231;-90
2022/11/18 08:29:11;;;;;;;2.97;1.80;;;;;;;21.24;55.86;95924.72;4964404;28;20257;-90
2022/11/18 08:31:38;;;;;;;2.43;2.10;;;;;;;20.93;55.92;95866.59;4992374;28;20242;-90
2022/11/18 08:34:05;;;;;;;2.83;1.90;;;;;;;21.01;55.91;95900.75;4962196;28;20254;-90
2022/11/18 08:36:34;;;;;;;5.47;2.10;;;;;;;21.25;55.63;95936.63;4972526;28;20302;-89
2022/11/18 08:39:01;;;;;;;4.13;2.03;;;;;;;20.88;56.02;95864.88;4989994;28;20199;-89
2022/11/18 08:41:38;;;;;;;2.00;1.80;;;;;;;21.16;56.03;95917.84;4954516;28;20207;-89
2022/11/18 08:44:05;;;;;;;2.17;1.93;;;;;;;21.08;56.04;95897.38;4964967;28;20198;-90
2022/11/18 08:46:32;;;;;;;2.20;1.83;;;;;;;21.32;55.92;95955.41;4979451;28;20313;-90
2022/11/18 08:48:58;;;;;;;1.80;1.70;;;;;;;20.48;55.81;95802.53;4970562;28;20199;-89
2022/11/18 08:51:25;;;;;;;2.27;1.90;;;;;;;21.03;56.32;95906.72;4986630;28;20294;-89
2022/11/18 08:53:51;;;;;;;3.90;1.70;;;;;;;20.89;56.21;95874.25;4956778;28;20207;-87
2022/11/18 08:56:19;;;;;;;1.67;1.43;;;;;;;21.42;55.86;95968.25;4959782;28;20277;-90
2022/11/18 08:58:45;;;;;;;2.97;2.00;;;;;;;21.03;55.89;95918.63;4976051;28;20294;-90
2022/11/18 09:01:12;;;;;;;2.87;1.97;;;;;;;20.79;55.85;95857.16;4977477;28;20207;-88
2022/11/18 09:03:39;;;;;;;1.83;1.57;;;;;;;21.21;56.07;95936.63;4974215;28;20668;-90
2022/11/18 09:06:05;;;;;;;2.53;2.07;;;;;;;21.43;56.06;95975.06;4988039;28;20203;-90
2022/11/18 09:08:32;;;;;;;2.47;2.00;;;;;;;20.89;55.89;95887.00;4987869;28;20622;-89
2022/11/18 09:10:58;;;;;;;3.30;2.10;;;;;;;21.18;56.21;95940.00;4968421;28;20200;-89
2022/11/18 09:13:25;;;;;;;1.80;1.70;;;;;;;20.86;56.33;95882.75;4971241;28;20206;-90
2022/11/18 09:16:12;;;;;;;2.07;1.80;;;;;;;21.22;56.07;95953.63;4962529;28;20206;-89
2022/11/18 09:18:38;;;;;;;1.70;1.60;;;;;;;20.85;55.98;95905.72;4971858;28;20198;-90
2022/11/18 09:21:06;;;;;;;2.43;1.70;;;;;;;21.02;56.25;95927.97;4974550;28;20722;-89
2022/11/18 09:23:34;;;;;;;2.23;1.97;;;;;;;20.75;56.28;95883.53;4959672;28;20286;-90
2022/11/18 09:26:02;;;;;;;3.70;1.70;;;;;;;20.95;56.23;95912.59;4957311;28;20199;-89
2022/11/18 09:28:28;;;;;;;1.83;1.70;;;;;;;21.08;56.43;95939.94;4970732;28;20246;-90
2022/11/18 09:30:55;;;;;;;2.70;1.93;;;;;;;20.86;56.07;95908.28;4973399;28;20213;-89
2022/11/18 09:33:21;;;;;;;1.90;1.70;;;;;;;21.00;56.32;95937.34;4969935;28;20210;-89
2022/11/18 09:35:48;;;;;;;2.07;1.80;;;;;;;20.84;56.17;95906.56;4987049;28;20209;-89
2022/11/18 09:38:15;;;;;;;2.00;1.67;;;;;;;20.87;55.93;95914.25;4967096;28;20221;-88
2022/11/18 09:41:02;;;;;;;1.80;1.70;;;;;;;21.42;56.27;96014.25;4968782;28;20566;-90
2022/11/18 09:44:04;;;;;;;4.03;1.90;;;;;;;20.75;56.15;95903.97;5003552;28;20199;-90
2022/11/18 09:46:58;;;;;;;4.20;1.80;;;;;;;20.39;56.29;95843.28;4988761;28;20234;-89
2022/11/18 09:49:33;;;;;;;3.13;1.63;;;;;;;21.22;56.15;95980.06;4972081;28;20663;-89
2022/11/18 09:52:20;;;;;;;1.83;1.63;;;;;;;20.48;56.15;95861.22;4968949;28;20206;-89
2022/11/18 09:54:47;;;;;;;2.27;1.70;;;;;;;20.57;56.19;95885.97;4955514;28;20242;-89
2022/11/18 09:57:17;;;;;;;2.70;1.97;;;;;;;21.44;56.39;96024.47;4987374;28;20225;-89
2022/11/18 09:59:43;;;;;;;1.70;1.60;;;;;;;19.95;56.31;95773.22;4971255;28;20720;-90
2022/11/18 10:02:44;;;;;;;1.87;1.73;;;;;;;21.43;56.36;96017.63;4959298;28;20199;-90
2022/11/18 10:05:24;;;;;;;2.10;1.90;;;;;;;21.04;56.20;95961.19;4987022;28;20214;-90
2022/11/18 10:07:58;;;;;;;3.20;1.70;;;;;;;21.20;56.48;95988.56;4959437;28;20721;-89
2022/11/18 10:10:42;;;;;;;1.70;1.60;;;;;;;21.35;56.44;96016.75;4959618;28;20236;-90
2022/11/18 10:13:22;;;;;;;2.10;1.77;;;;;;;21.06;56.38;95967.16;4992802;28;20294;-90
2022/11/18 10:16:18;;;;;;;2.03;1.70;;;;;;;20.89;56.29;95941.50;4969673;28;20290;-89
2022/11/18 10:18:56;;;;;;;1.70;1.60;;;;;;;20.97;56.34;95959.44;4968911;28;20589;-89
2022/11/18 10:21:38;;;;;;;2.50;1.67;;;;;;;21.42;56.30;96037.25;4955158;28;20241;-90
2022/11/18 10:24:24;;;;;;;1.67;1.47;;;;;;;20.80;56.44;95926.09;4984417;28;20222;-90
2022/11/18 10:26:58;;;;;;;3.07;1.70;;;;;;;21.24;56.41;96001.38;4985126;28;20861;-89
2022/11/18 10:29:24;;;;;;;2.00;1.80;;;;;;;20.66;56.48;95907.28;4964822;28;20235;-89
2022/11/18 10:32:00;;;;;;;2.93;1.70;;;;;;;21.43;56.27;96045.75;4956168;28;20217;-90
2022/11/18 10:34:31;;;;;;;2.30;1.50;;;;;;;20.59;56.50;95899.56;5002902;28;20199;-89
2022/11/18 10:37:20;;;;;;;1.67;1.57;;;;;;;20.70;56.45;95908.16;4971219;28;20231;-87
2022/11/18 10:39:51;;;;;;;2.10;1.90;;;;;;;20.86;56.33;95941.47;4985459;28;20676;-88
2022/11/18 10:42:26;;;;;;;1.50;1.40;;;;;;;20.84;56.43;95934.66;4968747;28;20286;-90
2022/11/18 10:44:52;;;;;;;2.30;1.93;;;;;;;21.04;56.45;95963.75;4977765;28;20293;-89
2022/11/18 10:47:26;;;;;;;1.90;1.70;;;;;;;21.43;56.50;96026.16;4973859;28;20719;-89
2022/11/18 10:49:54;;;;;;;2.23;1.80;;;;;;;21.43;56.45;96023.63;4974259;28;20282;-90
2022/11/18 10:52:21;;;;;;;3.10;1.63;;;;;;;20.81;56.51;95926.97;4961798;28;21673;-89
2022/11/18 10:55:10;;;;;;;1.80;1.63;;;;;;;21.22;56.40;95997.94;4964107;28;20199;-90
2022/11/18 10:57:42;;;;;;;1.50;1.40;;;;;;;21.26;56.62;96009.03;4985181;28;20314;-91
2022/11/18 11:00:35;;;;;;;1.93;1.53;;;;;;;21.43;56.37;96035.53;4959961;28;20687;-91
2022/11/18 11:03:20;;;;;;;1.70;1.60;;;;;;;21.24;56.37;96006.47;4974052;28;20210;-90
2022/11/18 11:05:47;;;;;;;1.80;1.70;;;;;;;21.03;56.85;95983.34;4990113;28;20234;-90
2022/11/18 11:08:21;;;;;;;1.70;1.50;;;;;;;21.20;56.16;96020.06;4981552;28;20223;-90
2022/11/18 11:11:03;;;;;;;1.93;1.60;;;;;;;21.24;56.64;96015.81;4967226;28;20625;-91
2022/11/18 11:13:29;;;;;;;1.80;1.70;;;;;;;20.61;56.60;95903.00;4956158;28;20242;-91
2022/11/18 11:15:58;;;;;;;1.70;1.60;;;;;;;20.87;56.58;95971.25;4974466;28;20203;-90
2022/11/18 11:18:42;;;;;;;1.90;1.50;;;;;;;20.80;56.80;95932.91;4980168;28;20674;-90
2022/11/18 11:21:13;;;;;;;1.60;1.50;;;;;;;20.79;56.63;95942.28;4967196;28;20211;-89
2022/11/18 11:23:40;;;;;;;1.63;1.50;;;;;;;20.88;56.64;95974.69;4959419;28;20203;-89
2022/11/18 11:26:23;;;;;;;1.80;1.37;;;;;;;20.72;56.59;95932.84;4963903;28;20218;-91
2022/11/18 11:29:27;;;;;;;3.40;1.80;;;;;;;21.44;56.48;96058.53;4991392;28;20217;-90
2022/11/18 11:32:00;;;;;;;2.47;1.63;;;;;;;20.90;56.53;95968.72;4989256;28;20214;-89
2022/11/18 11:34:44;;;;;;;2.70;1.60;;;;;;;20.65;56.70;95922.59;4990304;28;20693;-89
2022/11/18 11:37:35;;;;;;;1.63;1.53;;;;;;;21.44;56.70;96053.44;4989267;28;20233;-89
2022/11/18 11:40:24;;;;;;;3.43;1.70;;;;;;;21.45;56.74;96061.97;4992116;28;20203;-89
2022/11/18 11:42:51;;;;;;;2.57;1.60;;;;;;;21.45;56.51;96056.84;4984058;28;20401;-89
2022/11/18 11:45:29;;;;;;;2.43;1.77;;;;;;;21.45;56.24;96061.97;5005238;28;20596;-89
2022/11/18 11:48:12;;;;;;;3.97;1.70;;;;;;;20.86;56.75;95964.44;4987400;28;20234;-88
2022/11/18 11:50:59;;;;;;;2.10;1.63;;;;;;;20.93;56.62;95970.47;4987824;28;20707;-90
2022/11/18 11:53:46;;;;;;;4.10;1.67;;;;;;;21.45;56.64;96056.84;4975335;28;20206;-90
2022/11/18 11:56:31;;;;;;;2.70;1.60;;;;;;;21.09;56.60;95993.59;4987549;28;20310;-90
2022/11/18 11:59:17;;;;;;;2.67;1.77;;;;;;;21.16;56.64;96035.34;4988388;28;20211;-90
2022/11/18 12:01:53;;;;;;;3.23;1.67;;;;;;;21.45;56.72;96059.41;4954353;28;20203;-89
2022/11/18 12:04:45;;;;;;;3.17;1.80;;;;;;;21.21;56.54;96026.88;4988384;28;20617;-89
2022/11/18 12:07:18;;;;;;;1.67;1.40;;;;;;;20.79;56.65;95962.72;4973796;28;20245;-88
2022/11/18 12:10:01;;;;;;;5.00;1.60;;;;;;;20.70;56.91;95952.44;4973808;28;20211;-89
2022/11/18 12:12:34;;;;;;;3.07;1.70;;;;;;;21.20;56.78;96040.50;4973803;28;20684;-90